Holmes Beach, Florida
Current Conditions -  °F | °C
As of 12:53 AM on Wednesday 22 Oct 2014 (Local Time) from KSRQ Reporting Station
Clear Clear  
Wind Chill: 23°   Ceiling: Unl
Heat Index: 23°   Visibility: 10mi
Dew Point: 19°   Wind: 5mph
Humidity: 81%   Direction: 40°NE
Pressure: 29.93"   Gusts: NA
Location:  27.5°N, 82.71°W
Report Text: KSRQ 220453Z AUTO 04004KT 10SM CLR 23/19 A2993 RMK AO2 SLP136 T02280194 402940206
Loading
Personal Weather Stations






























Interactive Weather Map
Tropical Storm Tracking
New forecast layout! Learn more

10-Day Weather Forecast

Advertisements
Track Severe Weather on mobile